createdAt,value
2018-06-27T00:00:47.376Z,100298.00
2018-06-27T00:02:51.902Z,100294.00
2018-06-27T00:04:56.488Z,100292.00
2018-06-27T00:07:00.899Z,100288.00
2018-06-27T00:09:06.993Z,100293.00
2018-06-27T00:11:11.560Z,100290.00
2018-06-27T00:13:16.074Z,100290.00
2018-06-27T00:15:20.538Z,100288.00
2018-06-27T00:17:24.994Z,100287.00
2018-06-27T00:19:29.466Z,100290.00
2018-06-27T00:21:33.908Z,100287.00
2018-06-27T00:23:38.376Z,100290.00
2018-06-27T00:25:43.869Z,100294.00
2018-06-27T00:27:48.402Z,100289.00
2018-06-27T00:29:52.883Z,100286.00
2018-06-27T00:31:57.411Z,100292.00
2018-06-27T00:34:02.539Z,100297.00
2018-06-27T00:36:07.059Z,100286.00
2018-06-27T00:38:16.410Z,100284.00
2018-06-27T00:40:20.861Z,100294.00
2018-06-27T00:42:25.805Z,100290.00
2018-06-27T00:44:30.350Z,100296.00
2018-06-27T00:46:35.517Z,100299.00
2018-06-27T00:48:40.001Z,100291.00
2018-06-27T00:50:44.434Z,100290.00
2018-06-27T00:52:48.907Z,100288.00
2018-06-27T00:54:53.366Z,100288.00
2018-06-27T00:56:57.821Z,100283.00
2018-06-27T00:59:02.309Z,100291.00
2018-06-27T01:01:09.530Z,100288.00
2018-06-27T01:03:16.675Z,100289.00
2018-06-27T01:05:24.152Z,100284.00
2018-06-27T01:07:33.312Z,100279.00
2018-06-27T01:09:41.159Z,100289.00
2018-06-27T01:11:48.361Z,100281.00
2018-06-27T01:13:54.064Z,100289.00
2018-06-27T01:16:00.715Z,100291.00
2018-06-27T01:18:07.894Z,100288.00
2018-06-27T01:20:15.670Z,100285.00
2018-06-27T01:22:22.004Z,100288.00
2018-06-27T01:24:29.891Z,100289.00
2018-06-27T01:26:37.327Z,100289.00
2018-06-27T01:28:44.403Z,100280.00
2018-06-27T01:30:51.851Z,100289.00
2018-06-27T01:32:57.746Z,100295.00
2018-06-27T01:35:06.945Z,100289.00
2018-06-27T01:37:14.265Z,100281.00
2018-06-27T01:39:20.387Z,100295.00
2018-06-27T01:41:27.802Z,100290.00
2018-06-27T01:43:36.127Z,100291.00
2018-06-27T01:45:44.611Z,100292.00
2018-06-27T01:47:51.963Z,100288.00
2018-06-27T01:50:00.282Z,100292.00
2018-06-27T01:52:05.493Z,100293.00
2018-06-27T01:54:10.923Z,100296.00
2018-06-27T01:56:16.498Z,100301.00
2018-06-27T01:58:22.657Z,100298.00
2018-06-27T02:00:31.094Z,100299.00
2018-06-27T02:02:35.607Z,100301.00
2018-06-27T02:04:40.326Z,100305.00
2018-06-27T02:06:44.798Z,100304.00
2018-06-27T02:08:49.240Z,100314.00
2018-06-27T02:10:53.680Z,100308.00
2018-06-27T02:12:58.178Z,100310.00
2018-06-27T02:15:02.611Z,100312.00
2018-06-27T02:17:07.131Z,100307.00
2018-06-27T02:19:11.561Z,100310.00
2018-06-27T02:21:16.016Z,100303.00
2018-06-27T02:23:20.490Z,100314.00
2018-06-27T02:25:25.131Z,100303.00
2018-06-27T02:27:29.698Z,100302.00
2018-06-27T02:29:34.121Z,100303.00
2018-06-27T02:31:38.575Z,100311.00
2018-06-27T02:33:42.981Z,100312.00
2018-06-27T02:35:47.411Z,100313.00
2018-06-27T02:37:53.004Z,100307.00
2018-06-27T02:39:57.429Z,100310.00
2018-06-27T02:42:02.015Z,100308.00
2018-06-27T02:44:06.468Z,100306.00
2018-06-27T02:46:10.926Z,100306.00
2018-06-27T02:48:15.389Z,100310.00
2018-06-27T02:50:20.039Z,100302.00
2018-06-27T02:52:24.494Z,100300.00
2018-06-27T02:54:28.914Z,100304.00
2018-06-27T02:56:33.464Z,100312.00
2018-06-27T02:58:38.005Z,100303.00
2018-06-27T03:00:42.427Z,100298.00
2018-06-27T03:02:47.724Z,100307.00
2018-06-27T03:04:53.299Z,100310.00
2018-06-27T03:06:57.804Z,100311.00
2018-06-27T03:09:02.457Z,100314.00
2018-06-27T03:11:07.190Z,100305.00
2018-06-27T03:13:11.644Z,100311.00
2018-06-27T03:15:16.106Z,100308.00
2018-06-27T03:17:20.635Z,100304.00
2018-06-27T03:19:25.079Z,100303.00
2018-06-27T03:21:29.509Z,100304.00
2018-06-27T03:23:33.932Z,100304.00
2018-06-27T03:25:38.418Z,100290.00
2018-06-27T03:27:42.944Z,100304.00
2018-06-27T03:29:47.543Z,100297.00
2018-06-27T03:31:52.119Z,100298.00
2018-06-27T03:33:56.619Z,100297.00
2018-06-27T03:38:13.695Z,100301.00
2018-06-27T03:40:18.131Z,100301.00
2018-06-27T03:42:22.571Z,100297.00
2018-06-27T03:44:27.007Z,100291.00
2018-06-27T03:46:31.425Z,100292.00
2018-06-27T03:48:35.949Z,100296.00
2018-06-27T03:50:40.434Z,100299.00
2018-06-27T03:52:48.113Z,100297.00
2018-06-27T03:54:53.672Z,100294.00
2018-06-27T03:56:58.108Z,100291.00
2018-06-27T03:59:02.627Z,100301.00
2018-06-27T04:01:08.488Z,100302.00
2018-06-27T04:03:17.643Z,100302.00
2018-06-27T04:05:24.227Z,100307.00
2018-06-27T04:07:32.287Z,100311.00
2018-06-27T04:09:38.851Z,100316.00
2018-06-27T04:11:46.927Z,100310.00
2018-06-27T04:13:53.348Z,100304.00
2018-06-27T04:15:58.982Z,100314.00
2018-06-27T04:18:04.139Z,100313.00
2018-06-27T04:20:10.251Z,100315.00
2018-06-27T04:22:19.749Z,100317.00
2018-06-27T04:24:25.967Z,100314.00
2018-06-27T04:26:34.868Z,100319.00
2018-06-27T04:28:42.668Z,100320.00
2018-06-27T04:30:51.695Z,100316.00
2018-06-27T04:32:58.256Z,100311.00
2018-06-27T04:35:06.134Z,100320.00
2018-06-27T04:37:11.844Z,100320.00
2018-06-27T04:39:19.416Z,100315.00
2018-06-27T04:41:24.072Z,100323.00
2018-06-27T04:43:35.776Z,100322.00
2018-06-27T04:45:40.291Z,100318.00
2018-06-27T04:47:44.691Z,100326.00
2018-06-27T04:49:49.266Z,100321.00
2018-06-27T04:51:54.152Z,100333.00
2018-06-27T04:53:58.663Z,100333.00
2018-06-27T04:56:03.069Z,100316.00
2018-06-27T04:58:07.872Z,100322.00
2018-06-27T05:00:12.345Z,100318.00
2018-06-27T05:02:16.803Z,100320.00
2018-06-27T05:04:27.518Z,100322.00
2018-06-27T05:06:31.932Z,100320.00
2018-06-27T05:08:36.367Z,100323.00
2018-06-27T05:10:40.787Z,100322.00
2018-06-27T05:12:45.231Z,100320.00
2018-06-27T05:14:49.708Z,100313.00
2018-06-27T05:16:54.427Z,100319.00
2018-06-27T05:18:59.618Z,100316.00
2018-06-27T05:21:04.062Z,100325.00
2018-06-27T05:23:08.566Z,100316.00
2018-06-27T05:25:13.019Z,100318.00
2018-06-27T05:27:17.600Z,100301.00
2018-06-27T05:29:22.047Z,100318.00
2018-06-27T05:31:26.442Z,100305.00
2018-06-27T05:33:30.943Z,100305.00
2018-06-27T05:35:35.391Z,100312.00
2018-06-27T05:37:40.332Z,100308.00
2018-06-27T05:39:44.827Z,100312.00
2018-06-27T05:41:49.324Z,100306.00
2018-06-27T05:43:54.901Z,100310.00
2018-06-27T05:45:59.450Z,100307.00
2018-06-27T05:48:04.777Z,100304.00
2018-06-27T05:50:09.316Z,100311.00
2018-06-27T05:52:14.576Z,100311.00
2018-06-27T05:54:19.071Z,100306.00
2018-06-27T05:56:23.745Z,100308.00
2018-06-27T05:58:28.195Z,100306.00
2018-06-27T06:00:33.115Z,100314.00
2018-06-27T06:02:37.674Z,100308.00
2018-06-27T06:04:42.262Z,100307.00
2018-06-27T06:06:46.696Z,100319.00
2018-06-27T06:08:51.122Z,100324.00
2018-06-27T06:10:55.601Z,100330.00
2018-06-27T06:13:00.017Z,100332.00
2018-06-27T06:15:04.849Z,100333.00
2018-06-27T06:17:09.246Z,100326.00
2018-06-27T06:19:13.728Z,100332.00
2018-06-27T06:21:18.216Z,100324.00
2018-06-27T06:23:22.711Z,100321.00
2018-06-27T06:25:30.250Z,100332.00
2018-06-27T06:27:35.478Z,100324.00
2018-06-27T06:29:39.986Z,100333.00
2018-06-27T06:31:45.074Z,100321.00
2018-06-27T06:33:50.585Z,100325.00
2018-06-27T06:35:55.544Z,100324.00
2018-06-27T06:38:00.067Z,100324.00
2018-06-27T06:40:04.926Z,100335.00
2018-06-27T06:42:09.366Z,100334.00
2018-06-27T06:44:15.417Z,100322.00
2018-06-27T06:46:19.903Z,100315.00
2018-06-27T06:48:24.340Z,100321.00
2018-06-27T06:50:28.844Z,100318.00
2018-06-27T06:52:33.299Z,100320.00
2018-06-27T06:54:37.762Z,100314.00
2018-06-27T06:56:42.227Z,100330.00
2018-06-27T06:58:46.763Z,100320.00
2018-06-27T07:00:51.329Z,100318.00
2018-06-27T07:02:55.752Z,100313.00
2018-06-27T07:05:00.353Z,100320.00
2018-06-27T07:07:04.778Z,100317.00
2018-06-27T07:09:12.394Z,100318.00
2018-06-27T07:11:16.933Z,100315.00
2018-06-27T07:13:21.037Z,100304.00
2018-06-27T07:15:25.851Z,100313.00
2018-06-27T07:17:30.334Z,100312.00
2018-06-27T07:19:35.918Z,100323.00
2018-06-27T07:21:40.434Z,100318.00
2018-06-27T07:23:44.861Z,100326.00
2018-06-27T07:25:49.324Z,100322.00
2018-06-27T07:27:53.788Z,100315.00
2018-06-27T07:29:58.230Z,100322.00
2018-06-27T07:32:02.740Z,100316.00
2018-06-27T07:34:07.318Z,100321.00
2018-06-27T07:36:11.566Z,100319.00
2018-06-27T07:38:16.005Z,100322.00
2018-06-27T07:40:22.052Z,100320.00
2018-06-27T07:42:27.461Z,100320.00
2018-06-27T07:44:33.513Z,100323.00
2018-06-27T07:46:38.286Z,100320.00
2018-06-27T07:48:42.811Z,100314.00
2018-06-27T07:50:47.307Z,100313.00
2018-06-27T07:52:51.852Z,100316.00
2018-06-27T07:54:56.278Z,100321.00
2018-06-27T07:57:00.767Z,100322.00
2018-06-27T07:59:05.327Z,100321.00
2018-06-27T08:01:13.577Z,100317.00
2018-06-27T08:03:21.881Z,100318.00
2018-06-27T08:05:26.012Z,100330.00
2018-06-27T08:07:30.772Z,100333.00
2018-06-27T08:09:36.293Z,100318.00
2018-06-27T08:11:41.838Z,100316.00
2018-06-27T08:13:46.324Z,100315.00
2018-06-27T08:15:50.786Z,100317.00
2018-06-27T08:17:55.386Z,100307.00
2018-06-27T08:19:59.755Z,100311.00
2018-06-27T08:22:04.353Z,100311.00
2018-06-27T08:24:08.803Z,100314.00
2018-06-27T08:26:13.383Z,100309.00
2018-06-27T08:28:17.811Z,100304.00
2018-06-27T08:30:22.264Z,100302.00
2018-06-27T08:32:26.902Z,100307.00
2018-06-27T08:34:31.339Z,100307.00
2018-06-27T08:36:36.832Z,100308.00
2018-06-27T08:38:41.331Z,100310.00
2018-06-27T08:40:45.819Z,100299.00
2018-06-27T08:42:50.268Z,100307.00
2018-06-27T08:44:54.815Z,100308.00
2018-06-27T08:46:59.334Z,100302.00
2018-06-27T08:49:03.905Z,100310.00
2018-06-27T08:51:08.348Z,100304.00
2018-06-27T08:53:12.978Z,100312.00
2018-06-27T08:55:17.680Z,100299.00
2018-06-27T08:57:22.118Z,100302.00
2018-06-27T08:59:26.600Z,100317.00
2018-06-27T09:01:31.162Z,100306.00
2018-06-27T09:03:35.591Z,100301.00
2018-06-27T09:05:39.993Z,100310.00
2018-06-27T09:07:44.552Z,100309.00
2018-06-27T09:09:48.951Z,100309.00
2018-06-27T09:11:53.452Z,100294.00
2018-06-27T09:13:57.863Z,100300.00
2018-06-27T09:16:02.304Z,100308.00
2018-06-27T09:18:06.803Z,100302.00
2018-06-27T09:20:11.254Z,100301.00
2018-06-27T09:22:15.825Z,100296.00
2018-06-27T09:24:20.263Z,100288.00
2018-06-27T09:26:25.150Z,100301.00
2018-06-27T09:28:30.766Z,100298.00
2018-06-27T09:30:36.839Z,100298.00
2018-06-27T09:32:44.407Z,100288.00
2018-06-27T09:34:49.841Z,100292.00
2018-06-27T09:36:59.152Z,100288.00
2018-06-27T09:39:09.554Z,100288.00
2018-06-27T09:41:13.979Z,100276.00
2018-06-27T09:43:18.479Z,100279.00
2018-06-27T09:45:23.016Z,100282.00
2018-06-27T09:47:27.466Z,100284.00
2018-06-27T09:49:31.867Z,100286.00
2018-06-27T09:51:37.467Z,100282.00
2018-06-27T09:53:49.117Z,100280.00
2018-06-27T09:55:55.467Z,100266.00
2018-06-27T09:57:59.952Z,100278.00
2018-06-27T10:00:04.462Z,100271.00
2018-06-27T10:02:09.303Z,100270.00
2018-06-27T10:04:14.419Z,100279.00
2018-06-27T10:06:18.883Z,100278.00
2018-06-27T10:08:23.365Z,100276.00
2018-06-27T10:10:28.122Z,100270.00
2018-06-27T10:12:32.573Z,100267.00
2018-06-27T10:14:37.040Z,100273.00
2018-06-27T10:16:41.536Z,100267.00
2018-06-27T10:18:46.272Z,100267.00
2018-06-27T10:20:50.719Z,100257.00
2018-06-27T10:22:55.331Z,100264.00
2018-06-27T10:24:59.788Z,100268.00
2018-06-27T10:27:04.405Z,100265.00
2018-06-27T10:29:08.875Z,100264.00
2018-06-27T10:31:13.376Z,100262.00
2018-06-27T10:33:18.987Z,100252.00
2018-06-27T10:35:23.463Z,100248.00
2018-06-27T10:37:28.735Z,100258.00
2018-06-27T10:39:33.344Z,100251.00
2018-06-27T10:41:37.837Z,100251.00
2018-06-27T10:43:43.416Z,100257.00
2018-06-27T10:45:48.269Z,100244.00
2018-06-27T10:47:52.806Z,100251.00
2018-06-27T10:49:58.411Z,100242.00
2018-06-27T10:52:02.878Z,100240.00
2018-06-27T10:54:07.386Z,100248.00
2018-06-27T10:56:11.853Z,100238.00
2018-06-27T10:58:16.321Z,100255.00
2018-06-27T11:00:21.255Z,100249.00
2018-06-27T11:02:25.732Z,100237.00
2018-06-27T11:04:30.255Z,100238.00
2018-06-27T11:06:34.688Z,100230.00
2018-06-27T11:08:39.233Z,100239.00
2018-06-27T11:10:43.743Z,100240.00
2018-06-27T11:12:48.265Z,100231.00
2018-06-27T11:14:52.749Z,100236.00
2018-06-27T11:16:57.495Z,100232.00
2018-06-27T11:19:01.992Z,100225.00
2018-06-27T11:21:06.516Z,100231.00
2018-06-27T11:23:11.027Z,100234.00
2018-06-27T11:25:15.472Z,100226.00
2018-06-27T11:27:20.039Z,100221.00
2018-06-27T11:29:24.552Z,100234.00
2018-06-27T11:31:29.040Z,100226.00
2018-06-27T11:33:33.543Z,100226.00
2018-06-27T11:35:37.982Z,100220.00
2018-06-27T11:37:42.428Z,100223.00
2018-06-27T11:39:46.947Z,100228.00
2018-06-27T11:41:51.382Z,100222.00
2018-06-27T11:43:55.897Z,100224.00
2018-06-27T11:46:01.200Z,100225.00
2018-06-27T11:48:05.704Z,100227.00
2018-06-27T11:50:10.187Z,100218.00
2018-06-27T11:52:14.668Z,100210.00
2018-06-27T11:54:20.279Z,100211.00
2018-06-27T11:56:24.836Z,100222.00
2018-06-27T11:58:29.383Z,100210.00
2018-06-27T12:00:33.865Z,100205.00
2018-06-27T12:02:38.799Z,100211.00
2018-06-27T12:04:43.275Z,100204.00
2018-06-27T12:06:47.731Z,100216.00
2018-06-27T12:08:52.337Z,100214.00
2018-06-27T12:10:56.763Z,100204.00
2018-06-27T12:13:01.957Z,100195.00
2018-06-27T12:15:07.915Z,100213.00
2018-06-27T12:17:12.371Z,100207.00
2018-06-27T12:19:16.902Z,100211.00
2018-06-27T12:21:22.050Z,100199.00
2018-06-27T12:23:26.502Z,100206.00
2018-06-27T12:25:31.008Z,100195.00
2018-06-27T12:27:35.568Z,100199.00
2018-06-27T12:29:40.124Z,100207.00
2018-06-27T12:31:45.073Z,100199.00
2018-06-27T12:33:49.574Z,100206.00
2018-06-27T12:35:56.801Z,100199.00
2018-06-27T12:38:01.369Z,100194.00
2018-06-27T12:40:06.868Z,100197.00
2018-06-27T12:42:11.487Z,100193.00
2018-06-27T12:44:16.125Z,100207.00
2018-06-27T12:46:20.984Z,100202.00
2018-06-27T12:48:25.409Z,100193.00
2018-06-27T12:50:30.052Z,100186.00
2018-06-27T12:52:34.497Z,100175.00
2018-06-27T12:54:38.995Z,100163.00
2018-06-27T12:56:43.450Z,100174.00
2018-06-27T12:58:48.613Z,100176.00
2018-06-27T13:00:55.307Z,100179.00
2018-06-27T13:03:03.380Z,100185.00
2018-06-27T13:05:10.638Z,100173.00
2018-06-27T13:07:18.053Z,100190.00
2018-06-27T13:09:24.889Z,100176.00
2018-06-27T13:11:31.798Z,100168.00
2018-06-27T13:13:39.111Z,100173.00
2018-06-27T13:15:46.488Z,100178.00
2018-06-27T13:17:53.633Z,100175.00
2018-06-27T13:20:00.720Z,100172.00
2018-06-27T13:22:08.597Z,100184.00
2018-06-27T13:24:15.072Z,100188.00
2018-06-27T13:26:24.936Z,100178.00
2018-06-27T13:28:32.536Z,100188.00
2018-06-27T13:30:41.373Z,100183.00
2018-06-27T13:32:48.057Z,100176.00
2018-06-27T13:34:55.773Z,100174.00
2018-06-27T13:37:02.421Z,100173.00
2018-06-27T13:39:11.821Z,100167.00
2018-06-27T13:41:18.898Z,100181.00
2018-06-27T13:43:26.158Z,100157.00
2018-06-27T13:45:33.964Z,100162.00
2018-06-27T13:47:40.802Z,100168.00
2018-06-27T13:49:47.725Z,100170.00
2018-06-27T13:51:56.933Z,100159.00
2018-06-27T13:54:03.767Z,100158.00
2018-06-27T13:56:10.319Z,100169.00
2018-06-27T13:58:19.333Z,100162.00
2018-06-27T14:00:28.949Z,100160.00
2018-06-27T14:02:39.500Z,100159.00
2018-06-27T14:04:49.237Z,100164.00
2018-06-27T14:06:56.532Z,100156.00
2018-06-27T14:09:02.116Z,100142.00
2018-06-27T14:11:06.850Z,100148.00
2018-06-27T14:13:11.324Z,100151.00
2018-06-27T14:15:15.827Z,100155.00
2018-06-27T14:17:20.282Z,100172.00
2018-06-27T14:19:26.192Z,100162.00
2018-06-27T14:21:30.727Z,100161.00
2018-06-27T14:23:35.430Z,100157.00
2018-06-27T14:25:39.897Z,100149.00
2018-06-27T14:27:44.977Z,100146.00
2018-06-27T14:29:51.047Z,100153.00
2018-06-27T14:31:55.579Z,100147.00
2018-06-27T14:34:00.192Z,100146.00
2018-06-27T14:36:04.917Z,100143.00
2018-06-27T14:38:09.371Z,100145.00
2018-06-27T14:40:14.043Z,100124.00
2018-06-27T14:42:18.507Z,100133.00
2018-06-27T14:44:23.043Z,100135.00
2018-06-27T14:46:27.610Z,100125.00
2018-06-27T14:48:32.274Z,100124.00
2018-06-27T14:50:37.311Z,100121.00
2018-06-27T14:52:41.763Z,100129.00
2018-06-27T14:54:51.054Z,100133.00
2018-06-27T14:56:55.629Z,100125.00
2018-06-27T14:59:00.169Z,100127.00
2018-06-27T15:01:04.703Z,100117.00
2018-06-27T15:03:09.148Z,100120.00
2018-06-27T15:05:13.615Z,100137.00
2018-06-27T15:07:18.131Z,100126.00
2018-06-27T15:09:22.686Z,100123.00
2018-06-27T15:11:27.169Z,100125.00
2018-06-27T15:13:31.628Z,100129.00
2018-06-27T15:15:36.085Z,100129.00
2018-06-27T15:17:40.590Z,100121.00
2018-06-27T15:19:45.968Z,100110.00
2018-06-27T15:21:50.462Z,100128.00
2018-06-27T15:23:55.524Z,100119.00
2018-06-27T15:26:00.259Z,100124.00
2018-06-27T15:28:07.959Z,100113.00
2018-06-27T15:30:14.287Z,100124.00
2018-06-27T15:32:21.442Z,100107.00
2018-06-27T15:34:26.858Z,100104.00
2018-06-27T15:36:35.284Z,100109.00
2018-06-27T15:38:40.109Z,100107.00
2018-06-27T15:40:44.912Z,100096.00
2018-06-27T15:42:49.919Z,100103.00
2018-06-27T15:45:14.701Z,100104.00
2018-06-27T15:47:19.555Z,100098.00
2018-06-27T15:49:24.375Z,100100.00
2018-06-27T15:51:29.260Z,100099.00
2018-06-27T15:53:34.204Z,100093.00
2018-06-27T15:55:39.038Z,100081.00
2018-06-27T15:57:43.922Z,100090.00
2018-06-27T15:59:53.742Z,100103.00
2018-06-27T16:02:04.632Z,100101.00
2018-06-27T16:04:09.686Z,100096.00
2018-06-27T16:06:14.575Z,100098.00
2018-06-27T16:08:19.377Z,100093.00
2018-06-27T16:10:24.140Z,100093.00
2018-06-27T16:12:29.016Z,100094.00
2018-06-27T16:14:33.915Z,100097.00
2018-06-27T16:16:38.736Z,100096.00
2018-06-27T16:18:43.715Z,100087.00
2018-06-27T16:20:49.896Z,100087.00
2018-06-27T16:22:54.755Z,100093.00
2018-06-27T16:24:59.491Z,100093.00
2018-06-27T16:27:04.579Z,100085.00
2018-06-27T16:29:08.951Z,100091.00
2018-06-27T16:31:13.863Z,100095.00
2018-06-27T16:33:18.662Z,100091.00
2018-06-27T16:35:23.551Z,100085.00
2018-06-27T16:37:32.115Z,100093.00
2018-06-27T16:39:37.590Z,100095.00
2018-06-27T16:41:42.344Z,100095.00
2018-06-27T16:43:47.934Z,100087.00
2018-06-27T16:45:53.623Z,100097.00
2018-06-27T16:47:59.536Z,100094.00
2018-06-27T16:50:05.588Z,100091.00
2018-06-27T16:52:10.552Z,100076.00
2018-06-27T16:54:16.145Z,100097.00
2018-06-27T16:56:20.919Z,100093.00
2018-06-27T16:58:25.719Z,100095.00
2018-06-27T17:00:30.489Z,100101.00
2018-06-27T17:02:36.235Z,100096.00
2018-06-27T17:04:41.138Z,100102.00
2018-06-27T17:06:46.072Z,100097.00
2018-06-27T17:08:50.913Z,100092.00
2018-06-27T17:10:55.791Z,100097.00
2018-06-27T17:13:02.531Z,100094.00
2018-06-27T17:15:07.678Z,100096.00
2018-06-27T17:17:12.503Z,100094.00
2018-06-27T17:19:17.607Z,100101.00
2018-06-27T17:21:22.499Z,100103.00
2018-06-27T17:23:27.284Z,100100.00
2018-06-27T17:25:32.093Z,100101.00
2018-06-27T17:27:37.528Z,100100.00
2018-06-27T17:29:42.548Z,100104.00
2018-06-27T17:31:47.479Z,100101.00
2018-06-27T17:33:52.634Z,100110.00
2018-06-27T17:35:57.508Z,100105.00
2018-06-27T17:38:02.417Z,100108.00
2018-06-27T17:40:07.732Z,100116.00
2018-06-27T17:42:12.782Z,100100.00
2018-06-27T17:44:17.641Z,100110.00
2018-06-27T17:46:22.374Z,100105.00
2018-06-27T17:48:27.453Z,100108.00
2018-06-27T17:50:32.366Z,100121.00
2018-06-27T17:52:36.714Z,100121.00
2018-06-27T17:54:41.427Z,100122.00
2018-06-27T17:56:46.639Z,100118.00
2018-06-27T17:58:53.114Z,100124.00
2018-06-27T18:00:58.037Z,100122.00
2018-06-27T18:03:02.835Z,100117.00
2018-06-27T18:05:07.563Z,100121.00
2018-06-27T18:07:12.358Z,100126.00
2018-06-27T18:09:17.204Z,100122.00
2018-06-27T18:11:22.128Z,100111.00
2018-06-27T18:13:27.519Z,100120.00
2018-06-27T18:15:32.781Z,100117.00
2018-06-27T18:17:37.941Z,100116.00
2018-06-27T18:19:42.734Z,100123.00
2018-06-27T18:21:47.582Z,100118.00
2018-06-27T18:23:52.765Z,100124.00
2018-06-27T18:25:57.678Z,100117.00
2018-06-27T18:28:02.604Z,100117.00
2018-06-27T18:30:08.480Z,100119.00
2018-06-27T18:32:13.319Z,100117.00
2018-06-27T18:34:21.663Z,100117.00
2018-06-27T18:36:26.491Z,100125.00
2018-06-27T18:38:34.653Z,100128.00
2018-06-27T18:40:39.520Z,100130.00
2018-06-27T18:42:44.477Z,100122.00
2018-06-27T18:44:49.537Z,100132.00
2018-06-27T18:46:54.423Z,100131.00
2018-06-27T18:49:02.533Z,100129.00
2018-06-27T18:51:07.898Z,100142.00
2018-06-27T18:53:12.794Z,100146.00
2018-06-27T18:55:17.631Z,100138.00
2018-06-27T18:57:22.558Z,100146.00
2018-06-27T18:59:27.395Z,100137.00
2018-06-27T19:01:32.250Z,100142.00
2018-06-27T19:03:37.097Z,100139.00
2018-06-27T19:05:42.654Z,100139.00
2018-06-27T19:07:47.430Z,100140.00
2018-06-27T19:09:53.533Z,100139.00
2018-06-27T19:11:58.414Z,100146.00
2018-06-27T19:14:03.330Z,100143.00
2018-06-27T19:16:08.110Z,100141.00
2018-06-27T19:18:12.972Z,100147.00
2018-06-27T19:20:17.892Z,100149.00
2018-06-27T19:22:23.001Z,100143.00
2018-06-27T19:24:28.346Z,100146.00
2018-06-27T19:26:33.130Z,100147.00
2018-06-27T19:28:38.155Z,100147.00
2018-06-27T19:30:42.962Z,100146.00
2018-06-27T19:32:47.872Z,100147.00
2018-06-27T19:34:52.718Z,100159.00
2018-06-27T19:36:57.514Z,100157.00
2018-06-27T19:39:02.521Z,100155.00
2018-06-27T19:41:07.497Z,100159.00
2018-06-27T19:43:11.861Z,100158.00
2018-06-27T19:45:19.922Z,100161.00
2018-06-27T19:47:25.911Z,100164.00
2018-06-27T19:49:31.150Z,100167.00
2018-06-27T19:51:35.952Z,100159.00
2018-06-27T19:53:40.839Z,100164.00
2018-06-27T19:55:46.088Z,100165.00
2018-06-27T19:57:50.559Z,100172.00
2018-06-27T19:59:55.533Z,100177.00
2018-06-27T20:02:00.578Z,100172.00
2018-06-27T20:04:06.318Z,100178.00
2018-06-27T20:06:11.116Z,100178.00
2018-06-27T20:08:15.964Z,100190.00
2018-06-27T20:10:20.926Z,100182.00
2018-06-27T20:12:26.064Z,100196.00
2018-06-27T20:14:31.107Z,100185.00
2018-06-27T20:16:36.016Z,100181.00
2018-06-27T20:18:40.376Z,100189.00
2018-06-27T20:20:48.278Z,100188.00
2018-06-27T20:22:53.106Z,100190.00
2018-06-27T20:24:57.947Z,100194.00
2018-06-27T20:27:02.780Z,100194.00
2018-06-27T20:29:08.324Z,100198.00
2018-06-27T20:31:13.091Z,100198.00
2018-06-27T20:33:18.084Z,100197.00
2018-06-27T20:35:22.928Z,100197.00
2018-06-27T20:37:27.670Z,100195.00
2018-06-27T20:39:32.491Z,100202.00
2018-06-27T20:41:37.726Z,100209.00
2018-06-27T20:43:42.499Z,100202.00
2018-06-27T20:45:47.834Z,100205.00
2018-06-27T20:47:52.617Z,100193.00
2018-06-27T20:49:57.499Z,100205.00
2018-06-27T20:52:02.309Z,100202.00
2018-06-27T20:54:07.344Z,100196.00
2018-06-27T20:56:12.172Z,100194.00
2018-06-27T20:58:16.932Z,100203.00
2018-06-27T21:00:22.158Z,100196.00
2018-06-27T21:02:26.977Z,100202.00
2018-06-27T21:04:31.374Z,100204.00
2018-06-27T21:06:36.094Z,100202.00
2018-06-27T21:08:40.854Z,100207.00
2018-06-27T21:10:46.808Z,100220.00
2018-06-27T21:12:51.832Z,100214.00
2018-06-27T21:14:56.699Z,100215.00
2018-06-27T21:17:00.978Z,100219.00
2018-06-27T21:19:07.113Z,100219.00
2018-06-27T21:21:11.859Z,100217.00
2018-06-27T21:23:16.678Z,100217.00
2018-06-27T21:25:21.471Z,100224.00
2018-06-27T21:27:26.586Z,100218.00
2018-06-27T21:29:31.269Z,100220.00
2018-06-27T21:31:36.098Z,100230.00
2018-06-27T21:33:40.904Z,100216.00
2018-06-27T21:35:45.643Z,100229.00
2018-06-27T21:37:50.444Z,100226.00
2018-06-27T21:39:55.177Z,100223.00
2018-06-27T21:42:05.751Z,100226.00
2018-06-27T21:44:10.465Z,100234.00
2018-06-27T21:46:15.187Z,100228.00
2018-06-27T21:48:19.907Z,100239.00
2018-06-27T21:50:24.673Z,100245.00
2018-06-27T21:52:29.411Z,100233.00
2018-06-27T21:54:34.104Z,100238.00
2018-06-27T21:56:38.854Z,100240.00
2018-06-27T21:58:43.511Z,100241.00
2018-06-27T22:00:49.861Z,100244.00
2018-06-27T22:02:54.814Z,100236.00
2018-06-27T22:04:59.571Z,100257.00
2018-06-27T22:07:05.530Z,100253.00
2018-06-27T22:09:12.870Z,100244.00
2018-06-27T22:11:19.165Z,100247.00
2018-06-27T22:13:28.916Z,100248.00
2018-06-27T22:15:36.941Z,100250.00
2018-06-27T22:17:44.613Z,100248.00
2018-06-27T22:19:50.051Z,100249.00
2018-06-27T22:21:57.053Z,100243.00
2018-06-27T22:24:02.857Z,100246.00
2018-06-27T22:26:10.336Z,100248.00
2018-06-27T22:28:15.938Z,100246.00
2018-06-27T22:30:21.845Z,100240.00
2018-06-27T22:32:30.383Z,100246.00
2018-06-27T22:34:35.202Z,100248.00
2018-06-27T22:36:39.991Z,100247.00
2018-06-27T22:38:44.717Z,100242.00
2018-06-27T22:40:49.451Z,100250.00
2018-06-27T22:42:56.932Z,100245.00
2018-06-27T22:45:01.717Z,100258.00
2018-06-27T22:47:07.679Z,100250.00
2018-06-27T22:49:12.308Z,100242.00
2018-06-27T22:51:16.956Z,100239.00
2018-06-27T22:53:21.705Z,100238.00
2018-06-27T22:55:26.415Z,100244.00
2018-06-27T22:57:31.069Z,100235.00
2018-06-27T22:59:35.798Z,100235.00
2018-06-27T23:01:40.567Z,100227.00
2018-06-27T23:03:46.932Z,100230.00
2018-06-27T23:05:56.733Z,100235.00
2018-06-27T23:08:03.691Z,100241.00
2018-06-27T23:10:14.167Z,100237.00
2018-06-27T23:12:18.988Z,100235.00
2018-06-27T23:14:23.795Z,100238.00
2018-06-27T23:16:28.502Z,100236.00
2018-06-27T23:18:33.238Z,100236.00
2018-06-27T23:20:38.027Z,100238.00
2018-06-27T23:22:47.355Z,100237.00
2018-06-27T23:24:52.077Z,100244.00
2018-06-27T23:26:56.776Z,100236.00
2018-06-27T23:29:01.111Z,100237.00
2018-06-27T23:31:05.783Z,100239.00
2018-06-27T23:33:10.427Z,100240.00
2018-06-27T23:35:15.138Z,100232.00
2018-06-27T23:37:20.023Z,100229.00
2018-06-27T23:39:24.697Z,100243.00
2018-06-27T23:41:29.366Z,100237.00
2018-06-27T23:43:33.704Z,100230.00
2018-06-27T23:45:38.374Z,100236.00
2018-06-27T23:47:43.051Z,100245.00
2018-06-27T23:49:48.077Z,100234.00
2018-06-27T23:51:52.785Z,100240.00